Time;durP1;ratioP1;P1;durP2;ratioP2;P2;SDS_P1;SDS_P2;PMS_P1;PMS_P2;Temp;Humidity;BMP_temperature;BMP_pressure;BME280_temperature;BME280_humidity;BME280_pressure;Samples;Min_cycle;Max_cycle;Signal;HPM_P1;HPM_P2
2021/03/11 00:02:16;;;;;;;;;;;22.20;99.90;;;;;;4994715;28;19997;-77
2021/03/11 00:04:44;;;;;;;;;;;22.20;99.90;;;;;;4994055;28;19918;-78
2021/03/11 00:07:10;;;;;;;;;;;22.20;99.90;;;;;;4993694;28;19918;-75
2021/03/11 00:09:40;;;;;;;;;;;22.20;99.90;;;;;;4988519;28;19917;-77
2021/03/11 00:12:07;;;;;;;;;;;22.30;99.90;;;;;;4994613;28;19917;-77
2021/03/11 00:14:36;;;;;;;;;;;22.40;99.90;;;;;;4984351;28;19946;-76
2021/03/11 00:17:06;;;;;;;;;;;22.60;99.90;;;;;;4992784;28;19986;-77
2021/03/11 00:19:33;;;;;;;;;;;22.70;99.90;;;;;;4993797;28;19914;-80
2021/03/11 00:22:01;;;;;;;;;;;22.70;99.90;;;;;;4985647;28;19969;-81
2021/03/11 00:24:28;;;;;;;;;;;22.80;99.90;;;;;;4981467;28;19925;-78
2021/03/11 00:26:55;;;;;;;;;;;22.80;99.90;;;;;;4991453;28;19993;-81
2021/03/11 00:29:21;;;;;;;;;;;22.80;99.90;;;;;;5004447;28;19921;-78
2021/03/11 00:31:48;;;;;;;;;;;22.90;99.90;;;;;;4992511;28;19917;-82
2021/03/11 00:34:15;;;;;;;;;;;22.90;99.90;;;;;;4994994;28;20272;-82
2021/03/11 00:36:42;;;;;;;;;;;23.00;99.90;;;;;;4993562;28;20292;-84
2021/03/11 00:39:09;;;;;;;;;;;23.20;99.90;;;;;;4994220;28;19921;-79
2021/03/11 00:41:35;;;;;;;;;;;23.30;99.90;;;;;;4997800;28;19952;-82
2021/03/11 00:44:02;;;;;;;;;;;23.30;99.90;;;;;;5000329;28;19929;-77
2021/03/11 00:46:29;;;;;;;;;;;23.60;99.90;;;;;;4992591;28;19913;-80
2021/03/11 00:48:58;;;;;;;;;;;23.90;99.90;;;;;;4985369;28;20310;-82
2021/03/11 00:51:25;;;;;;;;;;;24.20;99.90;;;;;;4994072;28;20001;-83
2021/03/11 00:53:52;;;;;;;;;;;24.30;99.90;;;;;;4993410;28;19921;-84
2021/03/11 00:56:18;;;;;;;;;;;24.40;99.90;;;;;;4993532;28;20438;-80
2021/03/11 00:58:45;;;;;;;;;;;24.40;99.90;;;;;;4994270;28;19913;-83
2021/03/11 01:01:12;;;;;;;;;;;24.60;99.90;;;;;;4991691;28;20024;-83
2021/03/11 01:03:40;;;;;;;;;;;24.70;99.90;;;;;;4992096;28;20372;-81
2021/03/11 01:06:07;;;;;;;;;;;24.70;99.90;;;;;;4992871;28;20008;-81
2021/03/11 01:08:33;;;;;;;;;;;24.80;99.90;;;;;;4993069;28;19972;-83
2021/03/11 01:11:00;;;;;;;;;;;24.90;99.90;;;;;;4980038;28;19928;-83
2021/03/11 01:13:27;;;;;;;;;;;25.00;99.90;;;;;;4988400;28;20380;-82
2021/03/11 01:15:54;;;;;;;;;;;25.30;99.90;;;;;;4993659;28;19924;-80
2021/03/11 01:18:20;;;;;;;;;;;25.60;99.90;;;;;;4993326;28;19921;-82
2021/03/11 01:20:47;;;;;;;;;;;25.80;99.90;;;;;;4989983;28;19922;-82
2021/03/11 01:23:20;;;;;;;;;;;25.90;99.90;;;;;;4990321;28;19917;-80
2021/03/11 01:25:46;;;;;;;;;;;25.70;99.90;;;;;;4980278;28;19964;-81
2021/03/11 01:28:13;;;;;;;;;;;25.40;99.90;;;;;;4976363;28;19914;-82
2021/03/11 01:30:40;;;;;;;;;;;25.10;99.90;;;;;;4983969;28;19941;-83
2021/03/11 01:33:10;;;;;;;;;;;24.80;99.90;;;;;;4991914;28;19960;-78
2021/03/11 01:35:36;;;;;;;;;;;24.60;99.90;;;;;;4987616;28;19924;-79
2021/03/11 01:38:19;;;;;;;;;;;24.60;99.90;;;;;;4976717;28;19922;-82
2021/03/11 01:40:48;;;;;;;;;;;24.50;99.90;;;;;;4991057;28;20320;-81
2021/03/11 01:43:15;;;;;;;;;;;24.50;99.90;;;;;;4995039;28;19921;-82
2021/03/11 01:45:42;;;;;;;;;;;24.40;99.90;;;;;;4992317;28;19992;-83
2021/03/11 01:48:11;;;;;;;;;;;24.50;99.90;;;;;;4977756;28;20353;-83
2021/03/11 01:50:38;;;;;;;;;;;24.60;99.90;;;;;;4989093;28;19918;-81
2021/03/11 01:53:05;;;;;;;;;;;24.70;99.90;;;;;;4996939;28;20269;-83
2021/03/11 01:55:33;;;;;;;;;;;24.80;99.90;;;;;;5031247;28;19922;-83
2021/03/11 01:57:59;;;;;;;;;;;24.80;99.90;;;;;;5001782;28;19914;-82
2021/03/11 02:00:27;;;;;;;;;;;25.00;99.90;;;;;;4999129;28;20372;-82
2021/03/11 02:02:55;;;;;;;;;;;25.10;99.90;;;;;;4996260;28;19920;-84
2021/03/11 02:05:22;;;;;;;;;;;25.30;99.90;;;;;;4984631;28;20380;-80
2021/03/11 02:07:49;;;;;;;;;;;25.30;99.90;;;;;;4978449;28;19925;-82
2021/03/11 02:10:22;;;;;;;;;;;25.50;99.90;;;;;;4996119;28;19922;-81
2021/03/11 02:12:59;;;;;;;;;;;25.50;99.90;;;;;;4994997;28;19914;-82
2021/03/11 02:15:34;;;;;;;;;;;25.30;99.90;;;;;;4994461;28;20008;-83
2021/03/11 02:18:07;;;;;;;;;;;25.30;99.90;;;;;;4997261;28;20008;-82
2021/03/11 02:20:49;;;;;;;;;;;25.50;99.90;;;;;;4997703;28;19941;-82
2021/03/11 02:23:22;;;;;;;;;;;25.50;99.90;;;;;;4996268;28;20028;-82
2021/03/11 02:26:10;;;;;;;;;;;25.50;99.90;;;;;;4984128;28;19910;-80
2021/03/11 02:28:36;;;;;;;;;;;25.50;99.90;;;;;;4995786;28;19917;-84
2021/03/11 02:31:04;;;;;;;;;;;25.50;99.90;;;;;;4994594;28;19926;-81
2021/03/11 02:33:31;;;;;;;;;;;25.30;99.90;;;;;;4995364;28;19914;-84
2021/03/11 02:35:59;;;;;;;;;;;25.30;99.90;;;;;;4995948;28;20324;-84
2021/03/11 02:38:28;;;;;;;;;;;25.10;99.90;;;;;;4996025;28;19913;-84
2021/03/11 02:40:57;;;;;;;;;;;25.00;99.90;;;;;;4985645;28;20288;-83
2021/03/11 02:43:24;;;;;;;;;;;24.90;99.90;;;;;;4995171;28;19925;-79
2021/03/11 02:45:51;;;;;;;;;;;25.10;99.90;;;;;;4994197;28;20000;-80
2021/03/11 02:48:19;;;;;;;;;;;25.00;99.90;;;;;;4995705;28;19937;-81
2021/03/11 02:50:46;;;;;;;;;;;25.20;99.90;;;;;;4974211;28;20361;-81
2021/03/11 02:53:13;;;;;;;;;;;25.10;99.90;;;;;;4990698;28;19933;-82
2021/03/11 02:55:41;;;;;;;;;;;25.10;99.90;;;;;;5009057;28;19925;-85
2021/03/11 02:58:12;;;;;;;;;;;25.10;99.90;;;;;;5006149;28;19913;-81
2021/03/11 03:00:40;;;;;;;;;;;25.10;99.90;;;;;;5010946;28;20327;-78
2021/03/11 03:03:08;;;;;;;;;;;25.10;99.90;;;;;;4995034;28;19918;-79
2021/03/11 03:05:36;;;;;;;;;;;25.00;99.90;;;;;;4982012;28;19958;-78
2021/03/11 03:08:04;;;;;;;;;;;25.00;99.90;;;;;;4978372;28;20331;-80
2021/03/11 03:10:32;;;;;;;;;;;25.00;99.90;;;;;;4988789;28;19964;-80
2021/03/11 03:13:02;;;;;;;;;;;24.90;99.90;;;;;;4983695;28;19922;-78
2021/03/11 03:15:29;;;;;;;;;;;24.80;99.90;;;;;;4977990;28;20380;-78
2021/03/11 03:17:56;;;;;;;;;;;24.60;99.90;;;;;;4993343;28;19918;-84
2021/03/11 03:20:24;;;;;;;;;;;24.50;99.90;;;;;;4992433;28;19914;-81
2021/03/11 03:22:54;;;;;;;;;;;24.60;99.90;;;;;;4989474;28;19918;-81
2021/03/11 03:25:21;;;;;;;;;;;24.40;99.90;;;;;;4994090;28;19918;-79
2021/03/11 03:27:48;;;;;;;;;;;24.40;99.90;;;;;;4995155;28;19914;-80
2021/03/11 03:30:16;;;;;;;;;;;24.30;99.90;;;;;;4989559;28;20015;-83
2021/03/11 03:32:44;;;;;;;;;;;24.30;99.90;;;;;;4984747;28;19918;-80
2021/03/11 03:35:11;;;;;;;;;;;24.30;99.90;;;;;;4988034;28;19922;-79
2021/03/11 03:37:39;;;;;;;;;;;24.30;99.90;;;;;;4990248;28;19924;-81
2021/03/11 03:40:08;;;;;;;;;;;24.20;99.90;;;;;;4994483;28;19924;-78
2021/03/11 03:42:47;;;;;;;;;;;24.10;99.90;;;;;;4999312;28;20361;-81
2021/03/11 03:45:18;;;;;;;;;;;24.20;99.90;;;;;;4990406;28;19918;-79
2021/03/11 03:47:44;;;;;;;;;;;24.10;99.90;;;;;;4993828;28;19921;-80
2021/03/11 03:50:15;;;;;;;;;;;24.10;99.90;;;;;;4994348;28;19922;-79
2021/03/11 03:52:42;;;;;;;;;;;24.10;99.90;;;;;;4994690;28;19914;-83
2021/03/11 03:55:10;;;;;;;;;;;24.20;99.90;;;;;;4989711;28;19993;-82
2021/03/11 03:57:39;;;;;;;;;;;24.10;99.90;;;;;;4992706;28;19914;-81
2021/03/11 04:00:07;;;;;;;;;;;24.10;99.90;;;;;;4989307;28;19917;-82
2021/03/11 04:02:34;;;;;;;;;;;24.20;99.90;;;;;;4976415;28;19942;-81
2021/03/11 04:05:01;;;;;;;;;;;24.20;99.90;;;;;;4987328;28;19996;-77
2021/03/11 04:07:29;;;;;;;;;;;24.10;99.90;;;;;;4995004;28;19917;-78
2021/03/11 04:09:56;;;;;;;;;;;24.10;99.90;;;;;;4994370;28;19925;-78
2021/03/11 04:12:24;;;;;;;;;;;24.10;99.90;;;;;;4993895;28;19914;-82
2021/03/11 04:14:50;;;;;;;;;;;24.10;99.90;;;;;;4994107;28;19914;-80
2021/03/11 04:17:18;;;;;;;;;;;24.20;99.90;;;;;;4988127;28;19914;-80
2021/03/11 04:19:45;;;;;;;;;;;24.20;99.90;;;;;;4994616;28;19917;-82
2021/03/11 04:22:12;;;;;;;;;;;24.10;99.90;;;;;;4994143;28;19917;-83
2021/03/11 04:24:39;;;;;;;;;;;24.10;99.90;;;;;;4990080;28;19918;-80
2021/03/11 04:27:07;;;;;;;;;;;24.20;99.90;;;;;;4984182;28;19930;-81
2021/03/11 04:29:34;;;;;;;;;;;24.20;99.90;;;;;;4990312;28;20012;-82
2021/03/11 04:32:01;;;;;;;;;;;24.30;99.90;;;;;;4994347;28;19996;-80
2021/03/11 04:34:28;;;;;;;;;;;24.30;99.90;;;;;;4989405;28;19921;-80
2021/03/11 04:36:56;;;;;;;;;;;24.20;99.90;;;;;;4994114;28;19917;-80
2021/03/11 04:39:24;;;;;;;;;;;24.20;99.90;;;;;;4993000;28;19920;-81
2021/03/11 04:41:52;;;;;;;;;;;24.20;99.90;;;;;;4992073;28;19921;-81
2021/03/11 04:44:21;;;;;;;;;;;24.40;99.90;;;;;;4993778;28;19977;-80
2021/03/11 04:46:48;;;;;;;;;;;24.40;99.90;;;;;;4993495;28;19922;-80
2021/03/11 04:49:15;;;;;;;;;;;24.40;99.90;;;;;;4999502;28;19961;-80
2021/03/11 04:51:43;;;;;;;;;;;24.50;99.90;;;;;;4988776;28;20427;-80
2021/03/11 04:54:10;;;;;;;;;;;24.40;99.90;;;;;;5005089;28;19960;-82
2021/03/11 04:56:37;;;;;;;;;;;24.40;99.90;;;;;;4987915;28;19973;-80
2021/03/11 04:59:03;;;;;;;;;;;24.50;99.90;;;;;;4993220;28;20323;-80
2021/03/11 05:01:32;;;;;;;;;;;24.50;99.90;;;;;;4993681;28;19920;-84
2021/03/11 05:04:01;;;;;;;;;;;24.50;99.90;;;;;;5003537;28;19922;-83
2021/03/11 05:06:28;;;;;;;;;;;24.50;99.90;;;;;;4992284;28;20394;-79
2021/03/11 05:08:55;;;;;;;;;;;24.50;99.90;;;;;;4994708;28;20348;-80
2021/03/11 05:11:21;;;;;;;;;;;24.60;99.90;;;;;;4991301;28;19933;-84
2021/03/11 05:13:48;;;;;;;;;;;24.60;99.90;;;;;;4993017;28;19932;-80
2021/03/11 05:16:15;;;;;;;;;;;24.50;99.90;;;;;;4994398;28;19949;-82
2021/03/11 05:18:41;;;;;;;;;;;24.50;99.90;;;;;;4994835;28;20005;-83
2021/03/11 05:21:08;;;;;;;;;;;24.30;99.90;;;;;;4990223;28;19940;-82
2021/03/11 05:23:35;;;;;;;;;;;24.30;99.90;;;;;;4995616;28;19914;-79
2021/03/11 05:26:02;;;;;;;;;;;24.30;99.90;;;;;;5006205;28;19918;-81
2021/03/11 05:28:28;;;;;;;;;;;24.20;99.90;;;;;;5003231;28;19917;-79
2021/03/11 05:30:55;;;;;;;;;;;24.10;99.90;;;;;;4992579;28;20368;-83
2021/03/11 05:33:22;;;;;;;;;;;24.10;99.90;;;;;;4993492;28;19910;-79
2021/03/11 05:35:48;;;;;;;;;;;24.10;99.90;;;;;;4992923;28;19928;-82
2021/03/11 05:38:15;;;;;;;;;;;24.10;99.90;;;;;;4993195;28;19910;-84
2021/03/11 05:40:42;;;;;;;;;;;24.10;99.90;;;;;;4992717;28;19909;-81
2021/03/11 05:43:09;;;;;;;;;;;24.00;99.90;;;;;;4992634;28;20402;-81
2021/03/11 05:45:36;;;;;;;;;;;24.10;99.90;;;;;;4988516;28;19959;-79
2021/03/11 05:48:03;;;;;;;;;;;24.10;99.90;;;;;;4987819;28;19921;-78
2021/03/11 05:50:29;;;;;;;;;;;24.20;99.90;;;;;;4992773;28;20055;-82
2021/03/11 05:52:57;;;;;;;;;;;24.20;99.90;;;;;;4989938;28;20360;-82
2021/03/11 05:55:28;;;;;;;;;;;24.20;99.90;;;;;;5004164;28;19918;-78
2021/03/11 05:57:56;;;;;;;;;;;24.20;99.90;;;;;;4986992;28;19986;-81
2021/03/11 06:00:23;;;;;;;;;;;24.10;99.90;;;;;;4986442;28;20012;-79
2021/03/11 06:02:57;;;;;;;;;;;24.00;99.90;;;;;;4992436;28;19914;-80
2021/03/11 06:05:24;;;;;;;;;;;24.00;99.90;;;;;;4984858;28;19979;-85
2021/03/11 06:07:54;;;;;;;;;;;24.00;99.90;;;;;;4989694;28;19929;-82
2021/03/11 06:10:22;;;;;;;;;;;24.00;99.90;;;;;;4986723;28;19926;-80
2021/03/11 06:12:50;;;;;;;;;;;23.90;99.90;;;;;;4991356;28;19914;-84
2021/03/11 06:15:35;;;;;;;;;;;23.90;99.90;;;;;;4991045;28;19914;-82
2021/03/11 06:18:09;;;;;;;;;;;23.80;99.90;;;;;;4991168;28;19925;-82
2021/03/11 06:20:39;;;;;;;;;;;23.80;99.90;;;;;;4992210;28;19999;-86
2021/03/11 06:23:05;;;;;;;;;;;23.60;99.90;;;;;;4990424;28;19918;-86
2021/03/11 06:25:34;;;;;;;;;;;23.60;99.90;;;;;;4995831;28;20012;-83
2021/03/11 06:28:02;;;;;;;;;;;23.60;99.90;;;;;;5006780;28;19914;-83
2021/03/11 06:30:30;;;;;;;;;;;23.50;99.90;;;;;;4993846;28;19929;-82
2021/03/11 06:32:57;;;;;;;;;;;23.50;99.90;;;;;;4995699;28;19969;-83
2021/03/11 06:35:26;;;;;;;;;;;23.50;99.90;;;;;;4996735;28;19930;-82
2021/03/11 06:37:52;;;;;;;;;;;23.50;99.90;;;;;;4988564;28;19917;-81
2021/03/11 06:40:21;;;;;;;;;;;23.50;99.90;;;;;;4991426;28;19913;-81
2021/03/11 06:42:51;;;;;;;;;;;23.50;99.90;;;;;;4995388;28;20016;-83
2021/03/11 06:45:25;;;;;;;;;;;23.50;99.90;;;;;;5016918;28;19906;-83
2021/03/11 06:48:29;;;;;;;;;;;23.50;99.90;;;;;;4989274;28;19925;-83
2021/03/11 06:50:57;;;;;;;;;;;23.50;99.90;;;;;;4994266;28;19975;-81
2021/03/11 06:53:24;;;;;;;;;;;23.50;99.90;;;;;;4988916;28;20017;-82
2021/03/11 06:55:50;;;;;;;;;;;23.50;99.90;;;;;;4992299;28;20051;-82
2021/03/11 06:58:21;;;;;;;;;;;23.50;99.90;;;;;;4992502;28;19914;-84
2021/03/11 07:00:48;;;;;;;;;;;23.40;99.90;;;;;;4992436;28;20594;-82
2021/03/11 07:03:15;;;;;;;;;;;23.50;99.90;;;;;;4994942;28;19960;-82
2021/03/11 07:05:43;;;;;;;;;;;23.40;99.90;;;;;;4994331;28;19925;-82
2021/03/11 07:08:16;;;;;;;;;;;23.40;99.90;;;;;;4997103;28;20288;-81
2021/03/11 07:10:47;;;;;;;;;;;23.40;99.90;;;;;;5002604;28;19917;-82
2021/03/11 07:13:14;;;;;;;;;;;23.30;99.90;;;;;;4995943;28;20147;-81
2021/03/11 07:15:41;;;;;;;;;;;23.30;99.90;;;;;;4994785;28;19914;-82
2021/03/11 07:18:10;;;;;;;;;;;23.30;99.90;;;;;;4991308;28;20391;-80
2021/03/11 07:20:37;;;;;;;;;;;23.30;99.90;;;;;;4992180;28;19988;-83
2021/03/11 07:23:10;;;;;;;;;;;23.30;99.90;;;;;;4995796;28;19941;-83
2021/03/11 07:25:37;;;;;;;;;;;23.30;99.90;;;;;;4980720;28;19921;-82
2021/03/11 07:28:05;;;;;;;;;;;23.40;99.90;;;;;;4989594;28;19918;-82
2021/03/11 07:30:32;;;;;;;;;;;23.40;99.90;;;;;;4977006;28;20024;-82
2021/03/11 07:33:00;;;;;;;;;;;23.30;99.90;;;;;;4989400;28;19914;-83
2021/03/11 07:35:28;;;;;;;;;;;23.30;99.90;;;;;;4994688;28;19922;-82
2021/03/11 07:37:56;;;;;;;;;;;23.30;99.90;;;;;;4991851;28;19914;-82
2021/03/11 07:40:23;;;;;;;;;;;23.30;99.90;;;;;;4995093;28;19926;-82
2021/03/11 07:42:50;;;;;;;;;;;23.30;99.90;;;;;;5027295;28;20260;-81
2021/03/11 07:45:17;;;;;;;;;;;23.30;99.90;;;;;;4988053;28;19910;-82
2021/03/11 07:47:44;;;;;;;;;;;23.30;99.90;;;;;;4976446;28;19914;-84
2021/03/11 07:50:12;;;;;;;;;;;23.30;99.90;;;;;;4978855;28;19925;-83
2021/03/11 07:52:39;;;;;;;;;;;23.30;99.90;;;;;;4993266;28;19918;-82
2021/03/11 07:55:07;;;;;;;;;;;23.30;99.90;;;;;;4993176;28;19918;-82
2021/03/11 07:57:36;;;;;;;;;;;23.30;99.90;;;;;;4995067;28;20016;-84
2021/03/11 08:00:04;;;;;;;;;;;23.20;99.90;;;;;;4994653;28;19969;-85
2021/03/11 08:02:32;;;;;;;;;;;23.20;99.90;;;;;;4995994;28;20396;-86
2021/03/11 08:04:59;;;;;;;;;;;23.20;99.90;;;;;;4994134;28;19924;-82
2021/03/11 08:07:27;;;;;;;;;;;23.20;99.90;;;;;;4991011;28;19937;-84
2021/03/11 08:09:57;;;;;;;;;;;23.20;99.90;;;;;;4975949;28;20359;-84
2021/03/11 08:12:25;;;;;;;;;;;23.20;99.90;;;;;;4985085;28;20328;-83
2021/03/11 08:14:52;;;;;;;;;;;23.20;99.90;;;;;;4990285;28;20376;-82
2021/03/11 08:17:36;;;;;;;;;;;23.20;99.90;;;;;;4995054;28;19965;-84
2021/03/11 08:20:07;;;;;;;;;;;23.20;99.90;;;;;;4994859;28;19910;-87
2021/03/11 08:22:52;;;;;;;;;;;23.20;99.90;;;;;;4995120;28;19964;-82
2021/03/11 08:25:25;;;;;;;;;;;23.20;99.90;;;;;;4991270;28;19937;-86
2021/03/11 08:27:52;;;;;;;;;;;23.30;99.90;;;;;;4993235;28;19914;-84
2021/03/11 08:30:37;;;;;;;;;;;23.30;99.90;;;;;;4996652;28;19914;-85
2021/03/11 08:33:04;;;;;;;;;;;23.20;99.90;;;;;;4988117;28;19925;-84
2021/03/11 08:35:43;;;;;;;;;;;23.10;99.90;;;;;;4993951;28;19973;-85
2021/03/11 08:38:22;;;;;;;;;;;23.00;99.90;;;;;;4999410;28;19918;-86
2021/03/11 08:41:09;;;;;;;;;;;23.00;99.90;;;;;;4997503;28;19910;-84
2021/03/11 08:43:36;;;;;;;;;;;23.00;99.90;;;;;;4994238;28;19914;-83
2021/03/11 08:46:06;;;;;;;;;;;23.00;99.90;;;;;;4993840;28;19928;-86
2021/03/11 08:48:51;;;;;;;;;;;23.00;99.90;;;;;;4990595;28;19918;-83
2021/03/11 08:51:18;;;;;;;;;;;23.00;99.90;;;;;;4993730;28;19910;-85
2021/03/11 08:53:51;;;;;;;;;;;23.10;99.90;;;;;;5010816;28;19956;-86
2021/03/11 08:56:18;;;;;;;;;;;23.10;99.90;;;;;;4999894;28;20004;-86
2021/03/11 08:58:56;;;;;;;;;;;23.10;99.90;;;;;;4994937;28;19935;-86
2021/03/11 09:01:32;;;;;;;;;;;23.10;99.90;;;;;;4992052;28;19937;-85
2021/03/11 09:03:59;;;;;;;;;;;23.10;99.90;;;;;;4993074;28;19913;-85
2021/03/11 09:06:44;;;;;;;;;;;23.10;99.90;;;;;;4999429;28;19922;-84
2021/03/11 09:09:11;;;;;;;;;;;23.10;99.90;;;;;;4989814;28;19918;-85
2021/03/11 09:11:37;;;;;;;;;;;23.10;99.90;;;;;;4992972;28;20036;-87
2021/03/11 09:14:11;;;;;;;;;;;23.10;99.90;;;;;;4993842;28;19988;-86
2021/03/11 09:16:38;;;;;;;;;;;23.10;99.90;;;;;;4993906;28;19937;-86
2021/03/11 09:19:04;;;;;;;;;;;23.10;99.90;;;;;;4994248;28;19914;-85
2021/03/11 09:21:32;;;;;;;;;;;23.10;99.90;;;;;;4987792;28;19914;-85
2021/03/11 09:23:59;;;;;;;;;;;23.10;99.90;;;;;;4983331;28;19918;-86
2021/03/11 09:26:29;;;;;;;;;;;23.10;99.90;;;;;;4991911;28;19957;-85
2021/03/11 09:28:59;;;;;;;;;;;23.10;99.90;;;;;;4992310;28;19914;-85
2021/03/11 09:31:26;;;;;;;;;;;23.10;99.90;;;;;;4994080;28;19925;-86
2021/03/11 09:33:57;;;;;;;;;;;23.10;99.90;;;;;;4994468;28;19910;-86
2021/03/11 09:36:24;;;;;;;;;;;23.00;99.90;;;;;;4994092;28;20396;-85
2021/03/11 09:38:51;;;;;;;;;;;23.10;99.90;;;;;;4995235;28;19910;-86
2021/03/11 09:41:25;;;;;;;;;;;23.10;99.90;;;;;;4991019;28;20015;-87
2021/03/11 09:43:53;;;;;;;;;;;23.00;99.90;;;;;;4993260;28;19918;-89
2021/03/11 09:46:24;;;;;;;;;;;23.00;99.90;;;;;;4985836;28;20000;-85
2021/03/11 09:48:52;;;;;;;;;;;22.90;99.90;;;;;;4975466;28;19914;-84
2021/03/11 09:51:22;;;;;;;;;;;22.80;99.90;;;;;;4980248;28;19947;-85
2021/03/11 09:53:59;;;;;;;;;;;22.80;99.90;;;;;;4992762;28;20028;-84
2021/03/11 09:56:51;;;;;;;;;;;22.80;99.90;;;;;;5005447;28;20288;-87
2021/03/11 09:59:18;;;;;;;;;;;22.70;99.90;;;;;;4991721;28;19918;-86
2021/03/11 10:01:49;;;;;;;;;;;22.70;99.90;;;;;;4985035;28;19937;-86
2021/03/11 10:04:17;;;;;;;;;;;22.70;99.90;;;;;;4994143;28;19921;-81
2021/03/11 10:06:57;;;;;;;;;;;22.70;99.90;;;;;;5009092;28;20399;-83
2021/03/11 10:09:24;;;;;;;;;;;22.60;99.90;;;;;;4995571;28;19925;-84
2021/03/11 10:11:54;;;;;;;;;;;22.60;99.90;;;;;;4996084;28;20021;-85
2021/03/11 10:14:23;;;;;;;;;;;22.60;99.90;;;;;;4996135;28;19914;-86
2021/03/11 10:16:57;;;;;;;;;;;22.60;99.90;;;;;;4993978;28;20284;-85
2021/03/11 10:19:30;;;;;;;;;;;22.60;99.90;;;;;;4977575;28;19915;-84
2021/03/11 10:22:03;;;;;;;;;;;22.50;99.90;;;;;;4988644;28;19914;-84
2021/03/11 10:24:30;;;;;;;;;;;22.60;99.90;;;;;;4995416;28;19914;-82
2021/03/11 10:26:57;;;;;;;;;;;22.60;99.90;;;;;;4996361;28;20382;-84
2021/03/11 10:29:27;;;;;;;;;;;22.50;99.90;;;;;;4995382;28;20013;-85
2021/03/11 10:32:02;;;;;;;;;;;22.50;99.90;;;;;;4997015;28;20328;-84
2021/03/11 10:34:29;;;;;;;;;;;22.40;99.90;;;;;;4997061;28;19945;-86
2021/03/11 10:37:00;;;;;;;;;;;22.40;99.90;;;;;;5012912;28;19930;-86
2021/03/11 10:39:28;;;;;;;;;;;22.30;99.90;;;;;;5034996;28;19914;-83
2021/03/11 10:41:56;;;;;;;;;;;22.30;99.90;;;;;;5004444;28;19910;-85
2021/03/11 10:44:23;;;;;;;;;;;22.20;99.90;;;;;;4996548;28;20048;-84
2021/03/11 10:46:50;;;;;;;;;;;22.20;99.90;;;;;;4978522;28;19918;-82
2021/03/11 10:49:17;;;;;;;;;;;22.20;99.90;;;;;;4994711;28;19918;-83
2021/03/11 10:51:44;;;;;;;;;;;22.10;99.90;;;;;;4996404;28;20008;-87
2021/03/11 10:54:30;;;;;;;;;;;22.00;99.90;;;;;;4987397;28;20373;-86
2021/03/11 10:57:13;;;;;;;;;;;22.00;99.90;;;;;;4978712;28;20272;-84
2021/03/11 10:59:46;;;;;;;;;;;22.00;99.90;;;;;;4984665;28;19914;-87
2021/03/11 11:02:16;;;;;;;;;;;22.00;99.90;;;;;;4995963;28;19910;-84
2021/03/11 11:04:43;;;;;;;;;;;21.90;99.90;;;;;;4995927;28;20021;-87
2021/03/11 11:07:10;;;;;;;;;;;21.90;99.90;;;;;;4996459;28;19917;-83
2021/03/11 11:09:39;;;;;;;;;;;21.80;99.90;;;;;;4984068;28;19920;-82
2021/03/11 11:12:09;;;;;;;;;;;21.80;99.90;;;;;;4983418;28;19914;-83
2021/03/11 11:14:36;;;;;;;;;;;21.70;99.90;;;;;;4982686;28;19916;-87
2021/03/11 11:17:04;;;;;;;;;;;21.70;99.90;;;;;;4985735;28;19909;-84
2021/03/11 11:19:31;;;;;;;;;;;21.60;99.90;;;;;;4986164;28;19918;-85
2021/03/11 11:21:59;;;;;;;;;;;21.60;99.90;;;;;;4984657;28;19910;-86
2021/03/11 11:24:26;;;;;;;;;;;21.60;99.90;;;;;;4985705;28;19918;-86
2021/03/11 11:26:56;;;;;;;;;;;21.50;99.90;;;;;;4990030;28;20016;-87
2021/03/11 11:29:25;;;;;;;;;;;21.60;99.90;;;;;;4992605;28;19909;-85
2021/03/11 11:31:53;;;;;;;;;;;21.50;99.90;;;;;;4995628;28;19926;-85
2021/03/11 11:34:19;;;;;;;;;;;21.50;99.90;;;;;;4993511;28;19968;-87
2021/03/11 11:36:49;;;;;;;;;;;21.50;99.90;;;;;;4997279;28;19929;-83
2021/03/11 11:39:16;;;;;;;;;;;21.50;99.90;;;;;;4986537;28;19918;-86
2021/03/11 11:41:44;;;;;;;;;;;21.50;99.90;;;;;;4990034;28;19921;-88
2021/03/11 11:44:11;;;;;;;;;;;21.50;99.90;;;;;;4987612;28;19917;-85
2021/03/11 11:46:40;;;;;;;;;;;21.50;99.90;;;;;;4987668;28;19914;-86
2021/03/11 11:49:07;;;;;;;;;;;21.40;99.90;;;;;;4988517;28;19969;-85
2021/03/11 11:51:33;;;;;;;;;;;21.40;99.90;;;;;;4987541;28;20413;-84
2021/03/11 11:54:00;;;;;;;;;;;21.50;99.90;;;;;;4978430;28;19992;-85
2021/03/11 11:56:27;;;;;;;;;;;21.40;99.90;;;;;;4991475;28;19921;-86
2021/03/11 11:58:54;;;;;;;;;;;21.50;99.90;;;;;;4995958;28;19916;-87
2021/03/11 12:01:20;;;;;;;;;;;21.50;99.90;;;;;;4995471;28;19972;-87
2021/03/11 12:03:47;;;;;;;;;;;21.50;99.90;;;;;;4995576;28;20378;-85
2021/03/11 12:06:14;;;;;;;;;;;21.50;99.90;;;;;;4995045;28;19918;-85
2021/03/11 12:08:41;;;;;;;;;;;21.50;99.90;;;;;;4986430;28;20004;-89
2021/03/11 12:11:08;;;;;;;;;;;21.50;99.90;;;;;;4983432;28;20423;-86
2021/03/11 12:13:34;;;;;;;;;;;21.50;99.90;;;;;;5010128;28;19964;-85
2021/03/11 12:16:01;;;;;;;;;;;21.50;99.90;;;;;;4985379;28;19910;-83
2021/03/11 12:18:28;;;;;;;;;;;21.50;99.90;;;;;;4985143;28;19910;-82
2021/03/11 12:20:54;;;;;;;;;;;21.50;99.90;;;;;;4986160;28;19929;-85
2021/03/11 12:23:21;;;;;;;;;;;21.50;99.90;;;;;;5002176;28;19898;-84
2021/03/11 12:25:48;;;;;;;;;;;21.60;99.90;;;;;;5014146;28;19940;-87
2021/03/11 12:28:14;;;;;;;;;;;21.60;99.90;;;;;;4996039;28;20004;-86
2021/03/11 12:30:41;;;;;;;;;;;21.60;99.90;;;;;;4994490;28;19922;-84
2021/03/11 12:33:08;;;;;;;;;;;21.60;99.90;;;;;;4992169;28;20402;-87
2021/03/11 12:35:35;;;;;;;;;;;21.60;99.90;;;;;;4993357;28;19925;-86
2021/03/11 12:38:01;;;;;;;;;;;21.60;99.90;;;;;;4994713;28;19960;-85
2021/03/11 12:40:28;;;;;;;;;;;21.60;99.90;;;;;;4995386;28;20393;-86
2021/03/11 12:42:55;;;;;;;;;;;21.60;99.90;;;;;;4995474;28;20304;-86
2021/03/11 12:45:23;;;;;;;;;;;21.60;99.90;;;;;;4997720;28;20361;-86
2021/03/11 12:47:49;;;;;;;;;;;21.50;99.90;;;;;;4996887;28;19921;-84
2021/03/11 12:50:16;;;;;;;;;;;21.60;99.90;;;;;;4997225;28;19969;-84
2021/03/11 12:52:43;;;;;;;;;;;21.60;99.90;;;;;;4996058;28;19924;-84
2021/03/11 12:55:10;;;;;;;;;;;21.60;99.90;;;;;;4996173;28;19914;-84
2021/03/11 12:57:37;;;;;;;;;;;21.60;99.90;;;;;;4995307;28;20383;-83
2021/03/11 13:00:04;;;;;;;;;;;21.60;99.90;;;;;;4993479;28;19933;-85
2021/03/11 13:02:32;;;;;;;;;;;21.60;99.90;;;;;;4993920;28;19925;-84
2021/03/11 13:04:59;;;;;;;;;;;21.70;99.90;;;;;;4994133;28;20388;-84
2021/03/11 13:07:26;;;;;;;;;;;21.70;99.90;;;;;;4994249;28;19956;-86
2021/03/11 13:09:53;;;;;;;;;;;21.70;99.90;;;;;;4994273;28;19909;-85
2021/03/11 13:12:20;;;;;;;;;;;21.70;99.90;;;;;;4993907;28;19925;-87
2021/03/11 13:14:47;;;;;;;;;;;21.80;99.90;;;;;;4994063;28;19910;-86
2021/03/11 13:17:14;;;;;;;;;;;21.80;99.90;;;;;;4993732;28;19918;-84
2021/03/11 13:19:40;;;;;;;;;;;21.80;99.90;;;;;;4976460;28;19915;-86
2021/03/11 13:22:08;;;;;;;;;;;21.80;99.90;;;;;;4976482;28;19933;-84
2021/03/11 13:24:34;;;;;;;;;;;21.90;99.90;;;;;;4994313;28;19921;-83
2021/03/11 13:27:01;;;;;;;;;;;21.90;99.90;;;;;;4992920;28;19910;-84
2021/03/11 13:29:28;;;;;;;;;;;21.90;99.90;;;;;;4993593;28;19914;-86
2021/03/11 13:31:54;;;;;;;;;;;21.90;99.90;;;;;;5008040;28;19930;-84
2021/03/11 13:34:21;;;;;;;;;;;21.90;99.90;;;;;;4993234;28;19909;-84
2021/03/11 13:36:49;;;;;;;;;;;22.00;99.90;;;;;;4993805;28;19928;-84
2021/03/11 13:39:15;;;;;;;;;;;22.00;99.90;;;;;;4993509;28;19909;-85
2021/03/11 13:41:42;;;;;;;;;;;22.00;99.90;;;;;;4990708;28;19914;-83
2021/03/11 13:44:09;;;;;;;;;;;22.10;99.90;;;;;;4983783;28;20041;-85
2021/03/11 13:46:35;;;;;;;;;;;22.00;99.90;;;;;;4974525;28;19910;-83
2021/03/11 13:49:03;;;;;;;;;;;22.10;99.90;;;;;;4990701;28;19913;-84
2021/03/11 13:51:30;;;;;;;;;;;22.10;99.90;;;;;;4993656;28;19946;-85
2021/03/11 13:53:56;;;;;;;;;;;22.10;99.90;;;;;;4993068;28;19937;-84
2021/03/11 13:56:23;;;;;;;;;;;22.00;99.90;;;;;;4993293;28;19964;-85
2021/03/11 13:58:50;;;;;;;;;;;22.00;99.90;;;;;;5025044;28;19995;-85
2021/03/11 14:01:18;;;;;;;;;;;22.00;99.90;;;;;;4976688;28;19910;-84
2021/03/11 14:03:45;;;;;;;;;;;22.00;99.90;;;;;;4974292;28;19910;-82
2021/03/11 14:06:12;;;;;;;;;;;22.00;99.90;;;;;;4972816;28;20272;-84
2021/03/11 14:08:41;;;;;;;;;;;22.00;99.90;;;;;;4974888;28;19917;-83
2021/03/11 14:11:09;;;;;;;;;;;21.90;99.90;;;;;;4993944;28;19925;-83
2021/03/11 14:13:37;;;;;;;;;;;21.80;99.90;;;;;;5002520;28;19940;-82
2021/03/11 14:16:05;;;;;;;;;;;21.80;99.90;;;;;;4995667;28;19914;-85
2021/03/11 14:18:32;;;;;;;;;;;21.80;99.90;;;;;;4992807;28;19910;-85
2021/03/11 14:20:59;;;;;;;;;;;21.80;99.90;;;;;;4992896;28;19914;-83
2021/03/11 14:23:25;;;;;;;;;;;21.80;99.90;;;;;;4992196;28;20009;-85
2021/03/11 14:25:52;;;;;;;;;;;21.80;99.90;;;;;;4993646;28;19964;-84